Time,TemperatureF,DewpointF,PressureIn,WindDirection,WindDirectionDegrees,WindSpeedMPH,WindSpeedGustMPH,Humidity,HourlyPrecipIn,Conditions,Clouds,dailyrainin,SolarRadiationWatts/m^2,SoftwareType,DateUTC
2013-02-03 00:11:00,27.0,20.0,-100.00,SSE,157,0.0,4.0,75,0.00,,,0.00,0.000000,,2013-02-03 08:11:00,
2013-02-03 00:22:00,27.0,20.0,-100.00,SSE,157,0.0,4.0,75,0.00,,,0.00,0.000000,,2013-02-03 08:22:00,
2013-02-03 00:32:00,27.0,20.0,-100.00,SSE,157,0.0,4.0,75,0.00,,,0.00,0.000000,,2013-02-03 08:32:00,
2013-02-03 00:41:00,27.0,20.0,-100.00,SSE,157,0.0,4.0,75,0.00,,,0.00,0.000000,,2013-02-03 08:41:00,
2013-02-03 01:11:00,28.0,18.0,-100.00,SSE,155,0.0,4.0,65,0.00,,,0.00,0.000000,,2013-02-03 09:11:00,
2013-02-03 01:21:00,28.0,18.0,-100.00,SSE,155,0.0,4.0,65,0.00,,,0.00,0.000000,,2013-02-03 09:21:00,
2013-02-03 01:31:00,28.0,18.0,-100.00,SSE,155,0.0,4.0,65,0.00,,,0.00,0.000000,,2013-02-03 09:31:00,
2013-02-03 01:41:00,28.0,18.0,-100.00,SSE,155,0.0,4.0,65,0.00,,,0.00,0.000000,,2013-02-03 09:41:00,
2013-02-03 02:11:00,28.0,15.0,-100.00,SE,140,0.0,0.0,58,0.00,,,0.00,0.000000,,2013-02-03 10:11:00,
2013-02-03 02:21:00,28.0,15.0,-100.00,SE,140,0.0,0.0,58,0.00,,,0.00,0.000000,,2013-02-03 10:21:00,
2013-02-03 02:31:00,28.0,15.0,-100.00,SE,140,0.0,0.0,58,0.00,,,0.00,0.000000,,2013-02-03 10:31:00,
2013-02-03 02:41:00,28.0,15.0,-100.00,SE,140,0.0,0.0,58,0.00,,,0.00,0.000000,,2013-02-03 10:41:00,
2013-02-03 03:11:00,27.0,12.0,-100.00,SE,144,0.0,0.0,53,0.00,,,0.00,0.000000,,2013-02-03 11:11:00,
2013-02-03 03:22:00,27.0,12.0,-100.00,SE,144,0.0,0.0,53,0.00,,,0.00,0.000000,,2013-02-03 11:22:00,
2013-02-03 03:31:00,27.0,12.0,-100.00,SE,144,0.0,0.0,53,0.00,,,0.00,0.000000,,2013-02-03 11:31:00,
2013-02-03 03:41:00,27.0,12.0,-100.00,SE,144,0.0,0.0,53,0.00,,,0.00,0.000000,,2013-02-03 11:41:00,
2013-02-03 04:11:00,27.0,12.0,-100.00,SSE,149,0.0,0.0,52,0.00,,,0.00,0.000000,,2013-02-03 12:11:00,
2013-02-03 04:22:00,27.0,12.0,-100.00,SSE,149,0.0,0.0,52,0.00,,,0.00,0.000000,,2013-02-03 12:22:00,
2013-02-03 04:32:00,27.0,12.0,-100.00,SSE,149,0.0,0.0,52,0.00,,,0.00,0.000000,,2013-02-03 12:32:00,
2013-02-03 04:42:00,27.0,12.0,-100.00,SSE,149,0.0,0.0,52,0.00,,,0.00,0.000000,,2013-02-03 12:42:00,
2013-02-03 05:11:00,27.0,12.0,-100.00,SSE,152,0.0,3.0,52,0.00,,,0.00,0.000000,,2013-02-03 13:11:00,
2013-02-03 05:21:00,27.0,12.0,-100.00,SSE,152,0.0,3.0,52,0.00,,,0.00,0.000000,,2013-02-03 13:21:00,
2013-02-03 05:32:00,27.0,12.0,-100.00,SSE,152,0.0,3.0,52,0.00,,,0.00,0.000000,,2013-02-03 13:32:00,
2013-02-03 05:41:00,27.0,12.0,-100.00,SSE,152,0.0,3.0,52,0.00,,,0.00,0.000000,,2013-02-03 13:41:00,
2013-02-03 06:11:00,27.0,11.0,-100.00,SSE,149,0.0,3.0,51,0.00,,,0.00,0.000000,,2013-02-03 14:11:00,
2013-02-03 06:21:00,27.0,11.0,-100.00,SSE,149,0.0,3.0,51,0.00,,,0.00,0.000000,,2013-02-03 14:21:00,
2013-02-03 06:32:00,27.0,11.0,-100.00,SSE,149,0.0,3.0,51,0.00,,,0.00,0.000000,,2013-02-03 14:32:00,
2013-02-03 06:42:00,27.0,11.0,-100.00,SSE,149,0.0,3.0,51,0.00,,,0.00,0.000000,,2013-02-03 14:42:00,
2013-02-03 07:11:00,27.0,12.0,-100.00,SE,143,0.0,0.0,53,0.00,,,0.00,0.000000,,2013-02-03 15:11:00,
2013-02-03 07:21:00,27.0,12.0,-100.00,SE,143,0.0,0.0,53,0.00,,,0.00,0.000000,,2013-02-03 15:21:00,
2013-02-03 07:32:00,27.0,12.0,-100.00,SE,143,0.0,0.0,53,0.00,,,0.00,0.000000,,2013-02-03 15:32:00,
2013-02-03 07:41:00,27.0,12.0,-100.00,SE,143,0.0,0.0,53,0.00,,,0.00,0.000000,,2013-02-03 15:41:00,
2013-02-03 08:11:00,28.0,13.0,-100.00,SE,143,0.0,5.0,53,0.00,,,0.00,10.000000,,2013-02-03 16:11:00,
2013-02-03 08:21:00,28.0,13.0,-100.00,SE,143,0.0,5.0,53,0.00,,,0.00,10.000000,,2013-02-03 16:21:00,
2013-02-03 08:32:00,28.0,13.0,-100.00,SE,143,0.0,5.0,53,0.00,,,0.00,10.000000,,2013-02-03 16:32:00,
2013-02-03 08:41:00,28.0,13.0,-100.00,SE,143,0.0,5.0,53,0.00,,,0.00,10.000000,,2013-02-03 16:41:00,
2013-02-03 09:11:00,39.0,15.0,-100.00,SE,146,0.0,3.0,37,0.00,,,0.00,207.000000,,2013-02-03 17:11:00,
2013-02-03 09:21:00,39.0,15.0,-100.00,SE,146,0.0,3.0,37,0.00,,,0.00,207.000000,,2013-02-03 17:21:00,
2013-02-03 09:31:00,39.0,15.0,-100.00,SE,146,0.0,3.0,37,0.00,,,0.00,207.000000,,2013-02-03 17:31:00,
2013-02-03 09:41:00,39.0,15.0,-100.00,SE,146,0.0,3.0,37,0.00,,,0.00,207.000000,,2013-02-03 17:41:00,
2013-02-03 10:11:00,43.0,15.0,-100.00,East,85,1.0,5.0,32,0.00,,,0.00,423.000000,,2013-02-03 18:11:00,
2013-02-03 10:23:00,43.0,15.0,-100.00,East,85,1.0,5.0,32,0.00,,,0.00,423.000000,,2013-02-03 18:23:00,
2013-02-03 10:32:00,43.0,15.0,-100.00,East,85,1.0,5.0,32,0.00,,,0.00,423.000000,,2013-02-03 18:32:00,
2013-02-03 10:41:00,43.0,15.0,-100.00,East,85,1.0,5.0,32,0.00,,,0.00,423.000000,,2013-02-03 18:41:00,
2013-02-03 11:11:00,47.0,18.0,-100.00,ENE,66,2.0,7.0,31,0.00,,,0.00,582.000000,,2013-02-03 19:11:00,
2013-02-03 11:21:00,47.0,18.0,-100.00,ENE,66,2.0,7.0,31,0.00,,,0.00,582.000000,,2013-02-03 19:21:00,
2013-02-03 11:31:00,47.0,18.0,-100.00,ENE,66,2.0,7.0,31,0.00,,,0.00,582.000000,,2013-02-03 19:31:00,
2013-02-03 11:41:00,47.0,18.0,-100.00,ENE,66,2.0,7.0,31,0.00,,,0.00,582.000000,,2013-02-03 19:41:00,
2013-02-03 12:12:00,48.0,18.0,-100.00,WSW,251,1.0,11.0,30,0.00,,,0.00,563.000000,,2013-02-03 20:12:00,
2013-02-03 12:21:00,48.0,18.0,-100.00,WSW,251,1.0,11.0,30,0.00,,,0.00,563.000000,,2013-02-03 20:21:00,
2013-02-03 12:32:00,48.0,18.0,-100.00,WSW,251,1.0,11.0,30,0.00,,,0.00,563.000000,,2013-02-03 20:32:00,
2013-02-03 12:42:00,48.0,18.0,-100.00,WSW,251,1.0,11.0,30,0.00,,,0.00,563.000000,,2013-02-03 20:42:00,
2013-02-03 13:11:00,50.0,16.0,-100.00,North,1,5.0,10.0,25,0.00,,,0.00,576.000000,,2013-02-03 21:11:00,
2013-02-03 13:21:00,50.0,16.0,-100.00,North,1,5.0,10.0,25,0.00,,,0.00,576.000000,,2013-02-03 21:21:00,
2013-02-03 13:32:00,50.0,16.0,-100.00,North,1,5.0,10.0,25,0.00,,,0.00,576.000000,,2013-02-03 21:32:00,
2013-02-03 13:42:00,50.0,16.0,-100.00,North,1,5.0,10.0,25,0.00,,,0.00,576.000000,,2013-02-03 21:42:00,
2013-02-03 14:11:00,52.0,14.0,-100.00,ENE,72,2.0,13.0,22,0.00,,,0.00,723.000000,,2013-02-03 22:11:00,
2013-02-03 14:21:00,52.0,14.0,-100.00,ENE,72,2.0,13.0,22,0.00,,,0.00,723.000000,,2013-02-03 22:21:00,
2013-02-03 14:32:00,52.0,14.0,-100.00,ENE,72,2.0,13.0,22,0.00,,,0.00,723.000000,,2013-02-03 22:32:00,
2013-02-03 14:41:00,52.0,14.0,-100.00,ENE,72,2.0,13.0,22,0.00,,,0.00,723.000000,,2013-02-03 22:41:00,
2013-02-03 15:12:00,53.0,16.0,-100.00,West,275,4.0,9.0,23,0.00,,,0.00,606.000000,,2013-02-03 23:12:00,
2013-02-03 15:22:00,53.0,16.0,-100.00,West,275,4.0,9.0,23,0.00,,,0.00,606.000000,,2013-02-03 23:22:00,
2013-02-03 15:32:00,53.0,16.0,-100.00,West,275,4.0,9.0,23,0.00,,,0.00,606.000000,,2013-02-03 23:32:00,
2013-02-03 15:41:00,53.0,16.0,-100.00,West,275,4.0,9.0,23,0.00,,,0.00,606.000000,,2013-02-03 23:41:00,
2013-02-03 16:11:00,52.0,18.0,-100.00,WNW,302,2.0,8.0,26,0.00,,,0.00,436.000000,,2013-02-04 00:11:00,
2013-02-03 16:21:00,52.0,18.0,-100.00,WNW,302,2.0,8.0,26,0.00,,,0.00,436.000000,,2013-02-04 00:21:00,
2013-02-03 16:31:00,52.0,18.0,-100.00,WNW,302,2.0,8.0,26,0.00,,,0.00,436.000000,,2013-02-04 00:31:00,
2013-02-03 16:41:00,52.0,18.0,-100.00,WNW,302,2.0,8.0,26,0.00,,,0.00,436.000000,,2013-02-04 00:41:00,
2013-02-03 17:11:00,50.0,17.0,-100.00,ESE,111,0.0,9.0,27,0.00,,,0.00,232.000000,,2013-02-04 01:11:00,
2013-02-03 17:21:00,50.0,17.0,-100.00,ESE,111,0.0,9.0,27,0.00,,,0.00,232.000000,,2013-02-04 01:21:00,
2013-02-03 17:31:00,50.0,17.0,-100.00,ESE,111,0.0,9.0,27,0.00,,,0.00,232.000000,,2013-02-04 01:31:00,
2013-02-03 17:41:00,50.0,17.0,-100.00,ESE,111,0.0,9.0,27,0.00,,,0.00,232.000000,,2013-02-04 01:41:00,
2013-02-03 18:11:00,40.0,18.0,-100.00,SSE,148,0.0,4.0,41,0.00,,,0.00,13.000000,,2013-02-04 02:11:00,
2013-02-03 18:21:00,40.0,18.0,-100.00,SSE,148,0.0,4.0,41,0.00,,,0.00,13.000000,,2013-02-04 02:21:00,
2013-02-03 18:31:00,40.0,18.0,-100.00,SSE,148,0.0,4.0,41,0.00,,,0.00,13.000000,,2013-02-04 02:31:00,
2013-02-03 18:41:00,40.0,18.0,-100.00,SSE,148,0.0,4.0,41,0.00,,,0.00,13.000000,,2013-02-04 02:41:00,
2013-02-03 19:11:00,34.0,16.0,-100.00,SSE,150,0.0,5.0,48,0.00,,,0.00,0.000000,,2013-02-04 03:11:00,
2013-02-03 19:21:00,34.0,16.0,-100.00,SSE,150,0.0,5.0,48,0.00,,,0.00,0.000000,,2013-02-04 03:21:00,
2013-02-03 19:31:00,34.0,16.0,-100.00,SSE,150,0.0,5.0,48,0.00,,,0.00,0.000000,,2013-02-04 03:31:00,
2013-02-03 19:41:00,34.0,16.0,-100.00,SSE,150,0.0,5.0,48,0.00,,,0.00,0.000000,,2013-02-04 03:41:00,
2013-02-03 20:11:00,32.0,18.0,-100.00,SE,143,0.0,0.0,56,0.00,,,0.00,0.000000,,2013-02-04 04:11:00,
2013-02-03 20:21:00,32.0,18.0,-100.00,SE,143,0.0,0.0,56,0.00,,,0.00,0.000000,,2013-02-04 04:21:00,
2013-02-03 20:31:00,32.0,18.0,-100.00,SE,143,0.0,0.0,56,0.00,,,0.00,0.000000,,2013-02-04 04:31:00,
2013-02-03 20:41:00,32.0,18.0,-100.00,SE,143,0.0,0.0,56,0.00,,,0.00,0.000000,,2013-02-04 04:41:00,
2013-02-03 21:11:00,29.0,18.0,-100.00,SSE,152,0.0,4.0,64,0.00,,,-99.99,0.000000,,2013-02-04 05:11:00,
2013-02-03 21:22:00,29.0,18.0,-100.00,SSE,152,0.0,4.0,64,0.00,,,-99.99,0.000000,,2013-02-04 05:22:00,
2013-02-03 21:33:00,29.0,18.0,-100.00,SSE,152,0.0,4.0,64,0.00,,,-99.99,0.000000,,2013-02-04 05:33:00,
2013-02-03 21:41:00,29.0,18.0,-100.00,SSE,152,0.0,4.0,64,0.00,,,-99.99,0.000000,,2013-02-04 05:41:00,
2013-02-03 22:11:00,28.0,19.0,-100.00,SE,146,0.0,0.0,68,0.00,,,0.00,0.000000,,2013-02-04 06:11:00,
2013-02-03 22:21:00,28.0,19.0,-100.00,SE,146,0.0,0.0,68,0.00,,,0.00,0.000000,,2013-02-04 06:21:00,
2013-02-03 22:31:00,28.0,19.0,-100.00,SE,146,0.0,0.0,68,0.00,,,0.00,0.000000,,2013-02-04 06:31:00,
2013-02-03 22:41:00,28.0,19.0,-100.00,SE,146,0.0,0.0,68,0.00,,,0.00,0.000000,,2013-02-04 06:41:00,
2013-02-03 23:11:00,28.0,20.0,-100.00,SE,140,0.0,3.0,73,0.00,,,0.00,0.000000,,2013-02-04 07:11:00,
2013-02-03 23:21:00,28.0,20.0,-100.00,SE,140,0.0,3.0,73,0.00,,,0.00,0.000000,,2013-02-04 07:21:00,
2013-02-03 23:31:00,28.0,20.0,-100.00,SE,140,0.0,3.0,73,0.00,,,0.00,0.000000,,2013-02-04 07:31:00,
2013-02-03 23:41:00,28.0,20.0,-100.00,SE,140,0.0,3.0,73,0.00,,,0.00,0.000000,,2013-02-04 07:41:00,